sensor_id;sensor_type;location;lat;lon;timestamp;P1;durP1;ratioP1;P2;durP2;ratioP2
8464;SDS011;4269;52.458;13.430;2022-09-09T00:00:25;3.43;;;1.77;;
8464;SDS011;4269;52.458;13.430;2022-09-09T00:05:45;2.33;;;2.07;;
8464;SDS011;4269;52.458;13.430;2022-09-09T00:08:47;2.90;;;2.47;;
8464;SDS011;4269;52.458;13.430;2022-09-09T00:11:26;2.63;;;1.70;;
8464;SDS011;4269;52.458;13.430;2022-09-09T00:17:09;3.33;;;2.50;;
8464;SDS011;4269;52.458;13.430;2022-09-09T00:19:44;2.47;;;2.00;;
8464;SDS011;4269;52.458;13.430;2022-09-09T00:22:19;2.97;;;2.53;;
8464;SDS011;4269;52.458;13.430;2022-09-09T00:24:49;2.80;;;2.20;;
8464;SDS011;4269;52.458;13.430;2022-09-09T00:27:31;2.67;;;2.20;;
8464;SDS011;4269;52.458;13.430;2022-09-09T00:32:44;2.17;;;1.90;;
8464;SDS011;4269;52.458;13.430;2022-09-09T00:37:43;2.97;;;2.47;;
8464;SDS011;4269;52.458;13.430;2022-09-09T00:40:22;3.50;;;2.00;;
8464;SDS011;4269;52.458;13.430;2022-09-09T00:42:59;2.67;;;1.90;;
8464;SDS011;4269;52.458;13.430;2022-09-09T00:48:38;3.07;;;2.43;;
8464;SDS011;4269;52.458;13.430;2022-09-09T00:51:28;20.30;;;2.63;;
8464;SDS011;4269;52.458;13.430;2022-09-09T00:57:45;2.60;;;2.00;;
8464;SDS011;4269;52.458;13.430;2022-09-09T01:02:52;3.30;;;1.90;;
8464;SDS011;4269;52.458;13.430;2022-09-09T01:08:01;2.33;;;1.70;;
8464;SDS011;4269;52.458;13.430;2022-09-09T01:10:39;1.77;;;1.67;;
8464;SDS011;4269;52.458;13.430;2022-09-09T01:16:17;1.63;;;1.53;;
8464;SDS011;4269;52.458;13.430;2022-09-09T01:18:44;2.57;;;1.37;;
8464;SDS011;4269;52.458;13.430;2022-09-09T01:23:51;2.33;;;1.83;;
8464;SDS011;4269;52.458;13.430;2022-09-09T01:26:46;3.17;;;1.80;;
8464;SDS011;4269;52.458;13.430;2022-09-09T01:29:16;2.57;;;2.03;;
8464;SDS011;4269;52.458;13.430;2022-09-09T01:31:57;2.47;;;1.50;;
8464;SDS011;4269;52.458;13.430;2022-09-09T01:34:31;1.67;;;1.57;;
8464;SDS011;4269;52.458;13.430;2022-09-09T01:37:02;3.70;;;1.57;;
8464;SDS011;4269;52.458;13.430;2022-09-09T01:39:31;1.47;;;1.37;;
8464;SDS011;4269;52.458;13.430;2022-09-09T01:42:01;4.53;;;1.97;;
8464;SDS011;4269;52.458;13.430;2022-09-09T01:44:27;2.57;;;1.50;;
8464;SDS011;4269;52.458;13.430;2022-09-09T01:46:54;1.50;;;1.40;;
8464;SDS011;4269;52.458;13.430;2022-09-09T01:49:21;1.57;;;1.47;;
8464;SDS011;4269;52.458;13.430;2022-09-09T01:51:55;2.40;;;2.03;;
8464;SDS011;4269;52.458;13.430;2022-09-09T01:54:22;2.73;;;1.87;;
8464;SDS011;4269;52.458;13.430;2022-09-09T01:56:55;10.03;;;1.80;;
8464;SDS011;4269;52.458;13.430;2022-09-09T02:05:35;1.97;;;1.73;;
8464;SDS011;4269;52.458;13.430;2022-09-09T02:10:11;2.90;;;1.77;;
8464;SDS011;4269;52.458;13.430;2022-09-09T02:13:10;2.57;;;2.17;;
8464;SDS011;4269;52.458;13.430;2022-09-09T02:15:52;6.93;;;1.93;;
8464;SDS011;4269;52.458;13.430;2022-09-09T02:18:29;2.17;;;1.87;;
8464;SDS011;4269;52.458;13.430;2022-09-09T02:20:59;2.67;;;2.00;;
8464;SDS011;4269;52.458;13.430;2022-09-09T02:23:26;1.90;;;1.60;;
8464;SDS011;4269;52.458;13.430;2022-09-09T02:25:54;3.07;;;2.07;;
8464;SDS011;4269;52.458;13.430;2022-09-09T02:28:22;2.80;;;1.70;;
8464;SDS011;4269;52.458;13.430;2022-09-09T02:30:51;3.63;;;2.20;;
8464;SDS011;4269;52.458;13.430;2022-09-09T02:33:24;3.10;;;1.83;;
8464;SDS011;4269;52.458;13.430;2022-09-09T02:35:52;1.50;;;1.40;;
8464;SDS011;4269;52.458;13.430;2022-09-09T02:38:21;2.03;;;1.83;;
8464;SDS011;4269;52.458;13.430;2022-09-09T02:40:51;3.07;;;2.00;;
8464;SDS011;4269;52.458;13.430;2022-09-09T02:43:17;1.93;;;1.83;;
8464;SDS011;4269;52.458;13.430;2022-09-09T02:46:27;3.30;;;2.07;;
8464;SDS011;4269;52.458;13.430;2022-09-09T02:51:08;2.37;;;2.07;;
8464;SDS011;4269;52.458;13.430;2022-09-09T02:53:47;2.50;;;1.70;;
8464;SDS011;4269;52.458;13.430;2022-09-09T02:56:51;2.93;;;1.87;;
8464;SDS011;4269;52.458;13.430;2022-09-09T02:59:19;2.37;;;2.17;;
8464;SDS011;4269;52.458;13.430;2022-09-09T03:01:45;2.33;;;2.13;;
8464;SDS011;4269;52.458;13.430;2022-09-09T03:04:12;2.57;;;1.87;;
8464;SDS011;4269;52.458;13.430;2022-09-09T03:06:38;3.53;;;1.90;;
8464;SDS011;4269;52.458;13.430;2022-09-09T03:09:04;2.13;;;1.77;;
8464;SDS011;4269;52.458;13.430;2022-09-09T03:11:30;2.40;;;1.83;;
8464;SDS011;4269;52.458;13.430;2022-09-09T03:13:56;2.57;;;1.97;;
8464;SDS011;4269;52.458;13.430;2022-09-09T03:16:22;2.23;;;2.03;;
8464;SDS011;4269;52.458;13.430;2022-09-09T03:18:48;2.47;;;1.87;;
8464;SDS011;4269;52.458;13.430;2022-09-09T03:21:14;7.07;;;1.77;;
8464;SDS011;4269;52.458;13.430;2022-09-09T03:23:40;2.13;;;1.70;;
8464;SDS011;4269;52.458;13.430;2022-09-09T03:26:06;2.70;;;2.50;;
8464;SDS011;4269;52.458;13.430;2022-09-09T03:28:32;1.87;;;1.77;;
8464;SDS011;4269;52.458;13.430;2022-09-09T03:31:07;2.33;;;1.80;;
8464;SDS011;4269;52.458;13.430;2022-09-09T03:33:35;3.40;;;1.93;;
8464;SDS011;4269;52.458;13.430;2022-09-09T03:36:02;4.03;;;1.60;;
8464;SDS011;4269;52.458;13.430;2022-09-09T03:38:28;4.27;;;1.97;;
8464;SDS011;4269;52.458;13.430;2022-09-09T03:40:54;2.40;;;2.00;;
8464;SDS011;4269;52.458;13.430;2022-09-09T03:43:25;4.73;;;1.53;;
8464;SDS011;4269;52.458;13.430;2022-09-09T03:45:51;3.30;;;2.00;;
8464;SDS011;4269;52.458;13.430;2022-09-09T03:48:18;1.60;;;1.50;;
8464;SDS011;4269;52.458;13.430;2022-09-09T03:50:47;4.97;;;1.67;;
8464;SDS011;4269;52.458;13.430;2022-09-09T03:53:15;4.07;;;1.80;;
8464;SDS011;4269;52.458;13.430;2022-09-09T03:55:45;3.87;;;1.60;;
8464;SDS011;4269;52.458;13.430;2022-09-09T03:58:12;2.13;;;1.60;;
8464;SDS011;4269;52.458;13.430;2022-09-09T04:00:38;1.47;;;1.37;;
8464;SDS011;4269;52.458;13.430;2022-09-09T04:03:10;3.10;;;1.63;;
8464;SDS011;4269;52.458;13.430;2022-09-09T04:05:36;1.33;;;1.23;;
8464;SDS011;4269;52.458;13.430;2022-09-09T04:08:05;2.33;;;1.60;;
8464;SDS011;4269;52.458;13.430;2022-09-09T04:10:31;1.80;;;1.37;;
8464;SDS011;4269;52.458;13.430;2022-09-09T04:12:57;2.23;;;1.47;;
8464;SDS011;4269;52.458;13.430;2022-09-09T04:15:24;5.70;;;1.50;;
8464;SDS011;4269;52.458;13.430;2022-09-09T04:17:49;2.57;;;1.70;;
8464;SDS011;4269;52.458;13.430;2022-09-09T04:20:16;1.73;;;1.33;;
8464;SDS011;4269;52.458;13.430;2022-09-09T04:22:41;2.03;;;1.50;;
8464;SDS011;4269;52.458;13.430;2022-09-09T04:25:07;1.33;;;1.23;;
8464;SDS011;4269;52.458;13.430;2022-09-09T04:27:33;1.77;;;1.67;;
8464;SDS011;4269;52.458;13.430;2022-09-09T04:29:58;2.07;;;1.23;;
8464;SDS011;4269;52.458;13.430;2022-09-09T04:32:24;1.70;;;1.60;;
8464;SDS011;4269;52.458;13.430;2022-09-09T04:34:53;2.90;;;1.80;;
8464;SDS011;4269;52.458;13.430;2022-09-09T04:37:19;3.53;;;1.60;;
8464;SDS011;4269;52.458;13.430;2022-09-09T04:39:45;1.10;;;1.00;;
8464;SDS011;4269;52.458;13.430;2022-09-09T04:42:11;1.50;;;1.37;;
8464;SDS011;4269;52.458;13.430;2022-09-09T04:44:37;2.20;;;1.70;;
8464;SDS011;4269;52.458;13.430;2022-09-09T04:47:10;1.60;;;1.47;;
8464;SDS011;4269;52.458;13.430;2022-09-09T04:49:36;1.47;;;1.37;;
8464;SDS011;4269;52.458;13.430;2022-09-09T04:52:03;8.10;;;1.67;;
8464;SDS011;4269;52.458;13.430;2022-09-09T04:54:29;1.30;;;1.20;;
8464;SDS011;4269;52.458;13.430;2022-09-09T04:56:55;2.80;;;2.07;;
8464;SDS011;4269;52.458;13.430;2022-09-09T04:59:21;2.37;;;1.83;;
8464;SDS011;4269;52.458;13.430;2022-09-09T05:01:47;3.40;;;2.13;;
8464;SDS011;4269;52.458;13.430;2022-09-09T05:04:15;3.73;;;1.57;;
8464;SDS011;4269;52.458;13.430;2022-09-09T05:06:41;3.00;;;1.63;;
8464;SDS011;4269;52.458;13.430;2022-09-09T05:09:07;4.10;;;2.17;;
8464;SDS011;4269;52.458;13.430;2022-09-09T05:11:33;2.83;;;2.13;;
8464;SDS011;4269;52.458;13.430;2022-09-09T05:14:01;2.03;;;1.93;;
8464;SDS011;4269;52.458;13.430;2022-09-09T05:16:27;4.07;;;1.63;;
8464;SDS011;4269;52.458;13.430;2022-09-09T05:18:54;3.37;;;1.50;;
8464;SDS011;4269;52.458;13.430;2022-09-09T05:21:21;4.00;;;1.40;;
8464;SDS011;4269;52.458;13.430;2022-09-09T05:23:48;1.70;;;1.40;;
8464;SDS011;4269;52.458;13.430;2022-09-09T05:26:16;1.10;;;1.07;;
8464;SDS011;4269;52.458;13.430;2022-09-09T05:28:44;1.23;;;1.13;;
8464;SDS011;4269;52.458;13.430;2022-09-09T05:31:10;1.50;;;1.40;;
8464;SDS011;4269;52.458;13.430;2022-09-09T05:33:37;2.83;;;1.40;;
8464;SDS011;4269;52.458;13.430;2022-09-09T05:36:08;3.40;;;1.53;;
8464;SDS011;4269;52.458;13.430;2022-09-09T05:38:38;1.70;;;1.43;;
8464;SDS011;4269;52.458;13.430;2022-09-09T05:41:04;1.20;;;1.10;;
8464;SDS011;4269;52.458;13.430;2022-09-09T05:43:30;4.20;;;1.53;;
8464;SDS011;4269;52.458;13.430;2022-09-09T05:46:07;1.67;;;1.30;;
8464;SDS011;4269;52.458;13.430;2022-09-09T05:48:35;2.17;;;1.30;;
8464;SDS011;4269;52.458;13.430;2022-09-09T05:51:06;1.73;;;1.60;;
8464;SDS011;4269;52.458;13.430;2022-09-09T05:53:33;1.67;;;1.57;;
8464;SDS011;4269;52.458;13.430;2022-09-09T05:56:00;2.07;;;1.60;;
8464;SDS011;4269;52.458;13.430;2022-09-09T05:58:36;2.70;;;1.57;;
8464;SDS011;4269;52.458;13.430;2022-09-09T06:01:10;1.77;;;1.20;;
8464;SDS011;4269;52.458;13.430;2022-09-09T06:03:38;1.13;;;1.10;;
8464;SDS011;4269;52.458;13.430;2022-09-09T06:06:06;2.17;;;1.50;;
8464;SDS011;4269;52.458;13.430;2022-09-09T06:08:34;2.97;;;2.13;;
8464;SDS011;4269;52.458;13.430;2022-09-09T06:11:03;1.97;;;1.43;;
8464;SDS011;4269;52.458;13.430;2022-09-09T06:13:30;2.17;;;1.60;;
8464;SDS011;4269;52.458;13.430;2022-09-09T06:15:56;1.83;;;1.50;;
8464;SDS011;4269;52.458;13.430;2022-09-09T06:18:21;3.47;;;1.70;;
8464;SDS011;4269;52.458;13.430;2022-09-09T06:20:57;3.50;;;2.27;;
8464;SDS011;4269;52.458;13.430;2022-09-09T06:23:28;1.40;;;1.30;;
8464;SDS011;4269;52.458;13.430;2022-09-09T06:26:03;1.90;;;1.50;;
8464;SDS011;4269;52.458;13.430;2022-09-09T06:28:30;1.37;;;1.27;;
8464;SDS011;4269;52.458;13.430;2022-09-09T06:30:57;2.80;;;1.53;;
8464;SDS011;4269;52.458;13.430;2022-09-09T06:33:24;2.73;;;2.07;;
8464;SDS011;4269;52.458;13.430;2022-09-09T06:35:53;1.20;;;1.10;;
8464;SDS011;4269;52.458;13.430;2022-09-09T06:38:21;1.13;;;1.03;;
8464;SDS011;4269;52.458;13.430;2022-09-09T06:40:53;4.23;;;1.30;;
8464;SDS011;4269;52.458;13.430;2022-09-09T06:43:20;1.10;;;1.10;;
8464;SDS011;4269;52.458;13.430;2022-09-09T06:45:56;1.07;;;1.07;;
8464;SDS011;4269;52.458;13.430;2022-09-09T06:48:23;1.50;;;1.37;;
8464;SDS011;4269;52.458;13.430;2022-09-09T06:50:51;11.60;;;1.40;;
8464;SDS011;4269;52.458;13.430;2022-09-09T06:53:17;1.10;;;1.10;;
8464;SDS011;4269;52.458;13.430;2022-09-09T06:55:44;3.80;;;1.90;;
8464;SDS011;4269;52.458;13.430;2022-09-09T06:58:10;4.90;;;2.03;;
8464;SDS011;4269;52.458;13.430;2022-09-09T07:00:36;4.50;;;1.40;;
8464;SDS011;4269;52.458;13.430;2022-09-09T07:03:03;1.40;;;1.30;;
8464;SDS011;4269;52.458;13.430;2022-09-09T07:05:30;2.33;;;1.30;;
8464;SDS011;4269;52.458;13.430;2022-09-09T07:07:55;1.80;;;1.27;;
8464;SDS011;4269;52.458;13.430;2022-09-09T07:10:21;1.63;;;1.40;;
8464;SDS011;4269;52.458;13.430;2022-09-09T07:12:51;6.97;;;1.47;;
8464;SDS011;4269;52.458;13.430;2022-09-09T07:15:17;4.13;;;1.73;;
8464;SDS011;4269;52.458;13.430;2022-09-09T07:17:44;1.70;;;1.60;;
8464;SDS011;4269;52.458;13.430;2022-09-09T07:20:10;1.47;;;1.10;;
8464;SDS011;4269;52.458;13.430;2022-09-09T07:22:37;3.27;;;1.10;;
8464;SDS011;4269;52.458;13.430;2022-09-09T07:25:03;1.20;;;1.10;;
8464;SDS011;4269;52.458;13.430;2022-09-09T07:27:29;1.30;;;1.20;;
8464;SDS011;4269;52.458;13.430;2022-09-09T07:29:55;2.27;;;1.20;;
8464;SDS011;4269;52.458;13.430;2022-09-09T07:32:22;2.20;;;0.90;;
8464;SDS011;4269;52.458;13.430;2022-09-09T07:34:48;1.37;;;1.10;;
8464;SDS011;4269;52.458;13.430;2022-09-09T07:37:15;1.37;;;1.23;;
8464;SDS011;4269;52.458;13.430;2022-09-09T07:39:41;2.43;;;1.13;;
8464;SDS011;4269;52.458;13.430;2022-09-09T07:42:07;3.73;;;0.97;;
8464;SDS011;4269;52.458;13.430;2022-09-09T07:44:34;1.20;;;1.17;;
8464;SDS011;4269;52.458;13.430;2022-09-09T07:47:01;1.63;;;0.97;;
8464;SDS011;4269;52.458;13.430;2022-09-09T07:49:28;1.63;;;1.00;;
8464;SDS011;4269;52.458;13.430;2022-09-09T07:51:53;3.23;;;2.50;;
8464;SDS011;4269;52.458;13.430;2022-09-09T07:54:19;1.37;;;1.30;;
8464;SDS011;4269;52.458;13.430;2022-09-09T07:56:48;0.90;;;0.90;;
8464;SDS011;4269;52.458;13.430;2022-09-09T07:59:14;15.47;;;2.17;;
8464;SDS011;4269;52.458;13.430;2022-09-09T08:01:41;1.93;;;1.13;;
8464;SDS011;4269;52.458;13.430;2022-09-09T08:04:13;1.23;;;1.07;;
8464;SDS011;4269;52.458;13.430;2022-09-09T08:06:42;0.83;;;0.83;;
8464;SDS011;4269;52.458;13.430;2022-09-09T08:09:09;1.93;;;1.37;;
8464;SDS011;4269;52.458;13.430;2022-09-09T08:11:36;1.70;;;0.90;;
8464;SDS011;4269;52.458;13.430;2022-09-09T08:14:03;0.77;;;0.77;;
8464;SDS011;4269;52.458;13.430;2022-09-09T08:16:30;1.17;;;1.10;;
8464;SDS011;4269;52.458;13.430;2022-09-09T08:18:57;0.80;;;0.80;;
8464;SDS011;4269;52.458;13.430;2022-09-09T08:21:25;2.90;;;1.00;;
8464;SDS011;4269;52.458;13.430;2022-09-09T08:23:53;0.87;;;0.87;;
8464;SDS011;4269;52.458;13.430;2022-09-09T08:26:20;2.47;;;1.27;;
8464;SDS011;4269;52.458;13.430;2022-09-09T08:28:49;1.20;;;1.10;;
8464;SDS011;4269;52.458;13.430;2022-09-09T08:31:36;2.43;;;1.00;;
8464;SDS011;4269;52.458;13.430;2022-09-09T08:34:04;4.57;;;1.40;;
8464;SDS011;4269;52.458;13.430;2022-09-09T08:36:34;3.23;;;1.27;;
8464;SDS011;4269;52.458;13.430;2022-09-09T08:39:04;0.93;;;0.90;;
8464;SDS011;4269;52.458;13.430;2022-09-09T08:41:35;1.10;;;1.10;;
8464;SDS011;4269;52.458;13.430;2022-09-09T08:58:15;0.80;;;0.80;;
8464;SDS011;4269;52.458;13.430;2022-09-09T09:03:13;1.37;;;1.00;;
8464;SDS011;4269;52.458;13.430;2022-09-09T09:09:11;1.00;;;1.00;;
8464;SDS011;4269;52.458;13.430;2022-09-09T09:11:40;4.90;;;1.93;;
8464;SDS011;4269;52.458;13.430;2022-09-09T09:14:17;3.33;;;1.00;;
8464;SDS011;4269;52.458;13.430;2022-09-09T09:16:54;5.70;;;1.33;;
8464;SDS011;4269;52.458;13.430;2022-09-09T09:19:23;0.93;;;0.93;;
8464;SDS011;4269;52.458;13.430;2022-09-09T09:21:53;4.50;;;0.83;;
8464;SDS011;4269;52.458;13.430;2022-09-09T09:27:15;2.30;;;1.13;;
8464;SDS011;4269;52.458;13.430;2022-09-09T09:29:46;1.57;;;0.80;;
8464;SDS011;4269;52.458;13.430;2022-09-09T09:32:16;2.43;;;1.23;;
8464;SDS011;4269;52.458;13.430;2022-09-09T09:34:57;1.27;;;1.20;;
8464;SDS011;4269;52.458;13.430;2022-09-09T09:37:26;1.80;;;1.10;;
8464;SDS011;4269;52.458;13.430;2022-09-09T09:39:54;1.33;;;1.03;;
8464;SDS011;4269;52.458;13.430;2022-09-09T09:42:20;3.37;;;1.07;;
8464;SDS011;4269;52.458;13.430;2022-09-09T09:44:46;6.13;;;1.10;;
8464;SDS011;4269;52.458;13.430;2022-09-09T09:47:29;1.07;;;1.07;;
8464;SDS011;4269;52.458;13.430;2022-09-09T09:49:56;1.13;;;1.03;;
8464;SDS011;4269;52.458;13.430;2022-09-09T09:52:28;2.20;;;1.97;;
8464;SDS011;4269;52.458;13.430;2022-09-09T09:54:56;2.23;;;1.10;;
8464;SDS011;4269;52.458;13.430;2022-09-09T09:57:25;8.70;;;1.10;;
8464;SDS011;4269;52.458;13.430;2022-09-09T10:00:04;1.57;;;1.20;;
8464;SDS011;4269;52.458;13.430;2022-09-09T10:02:37;1.07;;;0.97;;
8464;SDS011;4269;52.458;13.430;2022-09-09T10:07:42;0.80;;;0.80;;
8464;SDS011;4269;52.458;13.430;2022-09-09T10:10:20;5.13;;;1.00;;
8464;SDS011;4269;52.458;13.430;2022-09-09T10:17:59;1.17;;;1.03;;
8464;SDS011;4269;52.458;13.430;2022-09-09T10:20:32;1.27;;;0.83;;
8464;SDS011;4269;52.458;13.430;2022-09-09T10:23:24;1.63;;;0.87;;
8464;SDS011;4269;52.458;13.430;2022-09-09T10:31:51;0.73;;;0.73;;
8464;SDS011;4269;52.458;13.430;2022-09-09T10:34:35;3.10;;;1.07;;
8464;SDS011;4269;52.458;13.430;2022-09-09T10:43:46;4.30;;;1.20;;
8464;SDS011;4269;52.458;13.430;2022-09-09T10:48:50;3.03;;;1.13;;
8464;SDS011;4269;52.458;13.430;2022-09-09T10:51:26;1.33;;;1.23;;
8464;SDS011;4269;52.458;13.430;2022-09-09T10:54:28;2.40;;;0.90;;
8464;SDS011;4269;52.458;13.430;2022-09-09T10:59:43;1.80;;;1.53;;
8464;SDS011;4269;52.458;13.430;2022-09-09T11:02:24;3.83;;;0.97;;
8464;SDS011;4269;52.458;13.430;2022-09-09T11:08:01;2.50;;;0.80;;
8464;SDS011;4269;52.458;13.430;2022-09-09T11:13:05;1.57;;;1.07;;
8464;SDS011;4269;52.458;13.430;2022-09-09T11:15:49;1.60;;;1.07;;
8464;SDS011;4269;52.458;13.430;2022-09-09T11:18:20;2.40;;;1.30;;
8464;SDS011;4269;52.458;13.430;2022-09-09T11:20:48;3.20;;;1.30;;
8464;SDS011;4269;52.458;13.430;2022-09-09T11:23:22;0.80;;;0.67;;
8464;SDS011;4269;52.458;13.430;2022-09-09T11:25:54;0.90;;;0.83;;
8464;SDS011;4269;52.458;13.430;2022-09-09T11:28:27;3.60;;;0.70;;
8464;SDS011;4269;52.458;13.430;2022-09-09T11:34:01;1.40;;;1.03;;
8464;SDS011;4269;52.458;13.430;2022-09-09T11:42:21;1.13;;;0.67;;
8464;SDS011;4269;52.458;13.430;2022-09-09T11:44:49;0.53;;;0.53;;
8464;SDS011;4269;52.458;13.430;2022-09-09T11:47:22;0.60;;;0.60;;
8464;SDS011;4269;52.458;13.430;2022-09-09T11:50:08;1.37;;;0.97;;
8464;SDS011;4269;52.458;13.430;2022-09-09T11:52:51;0.87;;;0.87;;
8464;SDS011;4269;52.458;13.430;2022-09-09T11:55:48;5.30;;;0.60;;
8464;SDS011;4269;52.458;13.430;2022-09-09T11:58:26;1.13;;;0.63;;
8464;SDS011;4269;52.458;13.430;2022-09-09T12:00:57;0.80;;;0.80;;
8464;SDS011;4269;52.458;13.430;2022-09-09T12:03:34;0.90;;;0.90;;
8464;SDS011;4269;52.458;13.430;2022-09-09T12:08:40;1.60;;;0.73;;
8464;SDS011;4269;52.458;13.430;2022-09-09T12:11:07;1.23;;;0.80;;
8464;SDS011;4269;52.458;13.430;2022-09-09T12:13:33;0.60;;;0.60;;
8464;SDS011;4269;52.458;13.430;2022-09-09T12:16:00;2.10;;;0.70;;
8464;SDS011;4269;52.458;13.430;2022-09-09T12:18:37;1.93;;;0.70;;
8464;SDS011;4269;52.458;13.430;2022-09-09T12:24:35;1.77;;;0.83;;
8464;SDS011;4269;52.458;13.430;2022-09-09T12:32:24;0.57;;;0.57;;
8464;SDS011;4269;52.458;13.430;2022-09-09T12:35:02;0.73;;;0.73;;
8464;SDS011;4269;52.458;13.430;2022-09-09T12:37:36;0.77;;;0.60;;
8464;SDS011;4269;52.458;13.430;2022-09-09T12:40:29;1.13;;;0.70;;
8464;SDS011;4269;52.458;13.430;2022-09-09T12:42:59;0.70;;;0.70;;
8464;SDS011;4269;52.458;13.430;2022-09-09T12:45:27;2.00;;;0.73;;
8464;SDS011;4269;52.458;13.430;2022-09-09T12:48:08;2.47;;;0.93;;
8464;SDS011;4269;52.458;13.430;2022-09-09T12:50:46;1.70;;;0.90;;
8464;SDS011;4269;52.458;13.430;2022-09-09T12:53:27;0.70;;;0.70;;
8464;SDS011;4269;52.458;13.430;2022-09-09T12:55:57;0.93;;;0.93;;
8464;SDS011;4269;52.458;13.430;2022-09-09T12:58:25;0.33;;;0.33;;
8464;SDS011;4269;52.458;13.430;2022-09-09T13:00:54;0.70;;;0.70;;
8464;SDS011;4269;52.458;13.430;2022-09-09T13:03:22;0.87;;;0.70;;
8464;SDS011;4269;52.458;13.430;2022-09-09T13:05:50;1.00;;;0.70;;
8464;SDS011;4269;52.458;13.430;2022-09-09T13:08:16;2.80;;;1.07;;
8464;SDS011;4269;52.458;13.430;2022-09-09T13:11:02;0.63;;;0.63;;
8464;SDS011;4269;52.458;13.430;2022-09-09T13:13:41;1.17;;;0.70;;
8464;SDS011;4269;52.458;13.430;2022-09-09T13:16:21;3.00;;;0.83;;
8464;SDS011;4269;52.458;13.430;2022-09-09T13:18:51;0.40;;;0.40;;
8464;SDS011;4269;52.458;13.430;2022-09-09T13:21:17;0.50;;;0.50;;
8464;SDS011;4269;52.458;13.430;2022-09-09T13:23:48;2.10;;;0.70;;
8464;SDS011;4269;52.458;13.430;2022-09-09T13:26:23;0.50;;;0.50;;
8464;SDS011;4269;52.458;13.430;2022-09-09T13:28:51;0.67;;;0.60;;
8464;SDS011;4269;52.458;13.430;2022-09-09T13:33:53;0.50;;;0.50;;
8464;SDS011;4269;52.458;13.430;2022-09-09T13:36:27;0.50;;;0.50;;
8464;SDS011;4269;52.458;13.430;2022-09-09T13:38:55;1.10;;;1.00;;
8464;SDS011;4269;52.458;13.430;2022-09-09T13:41:25;2.43;;;1.13;;
8464;SDS011;4269;52.458;13.430;2022-09-09T13:43:58;1.90;;;0.70;;
8464;SDS011;4269;52.458;13.430;2022-09-09T13:46:37;0.40;;;0.40;;
8464;SDS011;4269;52.458;13.430;2022-09-09T13:51:39;2.80;;;0.70;;
8464;SDS011;4269;52.458;13.430;2022-09-09T13:54:10;1.75;;;1.00;;
8464;SDS011;4269;52.458;13.430;2022-09-09T13:56:37;1.35;;;0.70;;
8464;SDS011;4269;52.458;13.430;2022-09-09T13:59:05;0.70;;;0.70;;
8464;SDS011;4269;52.458;13.430;2022-09-09T14:01:33;0.65;;;0.65;;
8464;SDS011;4269;52.458;13.430;2022-09-09T14:03:59;0.82;;;0.75;;
8464;SDS011;4269;52.458;13.430;2022-09-09T14:06:25;1.80;;;0.90;;
8464;SDS011;4269;52.458;13.430;2022-09-09T14:08:52;3.67;;;1.23;;
8464;SDS011;4269;52.458;13.430;2022-09-09T14:11:19;0.70;;;0.70;;
8464;SDS011;4269;52.458;13.430;2022-09-09T14:13:46;0.93;;;0.87;;
8464;SDS011;4269;52.458;13.430;2022-09-09T14:16:12;0.60;;;0.60;;
8464;SDS011;4269;52.458;13.430;2022-09-09T14:18:38;5.27;;;0.90;;
8464;SDS011;4269;52.458;13.430;2022-09-09T14:21:05;0.70;;;0.70;;
8464;SDS011;4269;52.458;13.430;2022-09-09T14:23:31;4.43;;;0.80;;
8464;SDS011;4269;52.458;13.430;2022-09-09T14:25:57;0.50;;;0.50;;
8464;SDS011;4269;52.458;13.430;2022-09-09T14:28:23;0.80;;;0.80;;
8464;SDS011;4269;52.458;13.430;2022-09-09T14:30:50;0.70;;;0.70;;
8464;SDS011;4269;52.458;13.430;2022-09-09T14:33:16;2.17;;;1.17;;
8464;SDS011;4269;52.458;13.430;2022-09-09T14:35:42;2.13;;;1.15;;
8464;SDS011;4269;52.458;13.430;2022-09-09T14:38:09;1.42;;;1.00;;
8464;SDS011;4269;52.458;13.430;2022-09-09T14:40:35;0.80;;;0.70;;
8464;SDS011;4269;52.458;13.430;2022-09-09T14:43:02;1.13;;;0.80;;
8464;SDS011;4269;52.458;13.430;2022-09-09T14:45:28;1.70;;;0.88;;
8464;SDS011;4269;52.458;13.430;2022-09-09T14:47:53;0.68;;;0.63;;
8464;SDS011;4269;52.458;13.430;2022-09-09T14:50:20;0.90;;;0.90;;
8464;SDS011;4269;52.458;13.430;2022-09-09T14:52:47;2.30;;;1.23;;
8464;SDS011;4269;52.458;13.430;2022-09-09T14:55:13;0.98;;;0.90;;
8464;SDS011;4269;52.458;13.430;2022-09-09T14:57:40;2.17;;;1.13;;
8464;SDS011;4269;52.458;13.430;2022-09-09T15:00:07;1.08;;;0.98;;
8464;SDS011;4269;52.458;13.430;2022-09-09T15:02:34;0.77;;;0.77;;
8464;SDS011;4269;52.458;13.430;2022-09-09T15:05:00;0.73;;;0.70;;
8464;SDS011;4269;52.458;13.430;2022-09-09T15:07:26;1.10;;;1.00;;
8464;SDS011;4269;52.458;13.430;2022-09-09T15:09:53;0.80;;;0.80;;
8464;SDS011;4269;52.458;13.430;2022-09-09T15:12:19;0.60;;;0.60;;
8464;SDS011;4269;52.458;13.430;2022-09-09T15:14:45;0.83;;;0.80;;
8464;SDS011;4269;52.458;13.430;2022-09-09T15:17:11;2.83;;;1.67;;
8464;SDS011;4269;52.458;13.430;2022-09-09T15:19:37;1.30;;;1.13;;
8464;SDS011;4269;52.458;13.430;2022-09-09T15:22:04;3.13;;;2.30;;
8464;SDS011;4269;52.458;13.430;2022-09-09T15:24:30;2.10;;;1.00;;
8464;SDS011;4269;52.458;13.430;2022-09-09T15:26:56;0.80;;;0.80;;
8464;SDS011;4269;52.458;13.430;2022-09-09T15:29:22;1.48;;;1.38;;
8464;SDS011;4269;52.458;13.430;2022-09-09T15:31:48;0.82;;;0.82;;
8464;SDS011;4269;52.458;13.430;2022-09-09T15:34:14;1.48;;;1.15;;
8464;SDS011;4269;52.458;13.430;2022-09-09T15:36:41;3.03;;;2.05;;
8464;SDS011;4269;52.458;13.430;2022-09-09T15:39:09;2.92;;;1.73;;
8464;SDS011;4269;52.458;13.430;2022-09-09T15:41:40;1.10;;;1.00;;
8464;SDS011;4269;52.458;13.430;2022-09-09T15:44:07;0.85;;;0.85;;
8464;SDS011;4269;52.458;13.430;2022-09-09T15:46:42;1.17;;;1.02;;
8464;SDS011;4269;52.458;13.430;2022-09-09T15:49:15;0.73;;;0.73;;
8464;SDS011;4269;52.458;13.430;2022-09-09T15:51:45;1.88;;;0.80;;
8464;SDS011;4269;52.458;13.430;2022-09-09T15:54:19;0.80;;;0.80;;
8464;SDS011;4269;52.458;13.430;2022-09-09T15:56:49;1.35;;;1.25;;
8464;SDS011;4269;52.458;13.430;2022-09-09T15:59:17;3.05;;;1.30;;
8464;SDS011;4269;52.458;13.430;2022-09-09T16:01:43;1.15;;;0.70;;
8464;SDS011;4269;52.458;13.430;2022-09-09T16:04:09;1.10;;;1.00;;
8464;SDS011;4269;52.458;13.430;2022-09-09T16:06:35;4.25;;;3.38;;
8464;SDS011;4269;52.458;13.430;2022-09-09T16:09:02;0.88;;;0.77;;
8464;SDS011;4269;52.458;13.430;2022-09-09T16:11:30;2.53;;;1.90;;
8464;SDS011;4269;52.458;13.430;2022-09-09T16:13:58;1.85;;;1.30;;
8464;SDS011;4269;52.458;13.430;2022-09-09T16:16:26;0.98;;;0.98;;
8464;SDS011;4269;52.458;13.430;2022-09-09T16:18:53;1.45;;;0.80;;
8464;SDS011;4269;52.458;13.430;2022-09-09T16:21:22;1.20;;;1.10;;
8464;SDS011;4269;52.458;13.430;2022-09-09T16:24:00;0.88;;;0.88;;
8464;SDS011;4269;52.458;13.430;2022-09-09T16:26:30;2.42;;;1.77;;
8464;SDS011;4269;52.458;13.430;2022-09-09T16:28:57;1.05;;;0.90;;
8464;SDS011;4269;52.458;13.430;2022-09-09T16:31:24;0.73;;;0.73;;
8464;SDS011;4269;52.458;13.430;2022-09-09T16:33:50;1.10;;;1.00;;
8464;SDS011;4269;52.458;13.430;2022-09-09T16:36:17;1.27;;;1.23;;
8464;SDS011;4269;52.458;13.430;2022-09-09T16:38:47;0.55;;;0.55;;
8464;SDS011;4269;52.458;13.430;2022-09-09T16:41:13;0.63;;;0.63;;
8464;SDS011;4269;52.458;13.430;2022-09-09T16:43:39;0.88;;;0.88;;
8464;SDS011;4269;52.458;13.430;2022-09-09T16:46:11;0.60;;;0.60;;
8464;SDS011;4269;52.458;13.430;2022-09-09T16:48:42;3.30;;;0.93;;
8464;SDS011;4269;52.458;13.430;2022-09-09T16:51:11;0.70;;;0.60;;
8464;SDS011;4269;52.458;13.430;2022-09-09T16:53:51;3.37;;;0.93;;
8464;SDS011;4269;52.458;13.430;2022-09-09T16:56:21;0.80;;;0.70;;
8464;SDS011;4269;52.458;13.430;2022-09-09T16:58:56;2.50;;;1.07;;
8464;SDS011;4269;52.458;13.430;2022-09-09T17:01:23;4.23;;;1.97;;
8464;SDS011;4269;52.458;13.430;2022-09-09T17:03:56;6.87;;;3.40;;
8464;SDS011;4269;52.458;13.430;2022-09-09T17:06:23;1.13;;;1.10;;
8464;SDS011;4269;52.458;13.430;2022-09-09T17:09:00;3.37;;;1.97;;
8464;SDS011;4269;52.458;13.430;2022-09-09T17:11:28;1.03;;;1.03;;
8464;SDS011;4269;52.458;13.430;2022-09-09T17:13:55;1.53;;;1.20;;
8464;SDS011;4269;52.458;13.430;2022-09-09T17:16:24;1.13;;;0.70;;